createdAt,value
2018-11-29T00:00:28.606Z,76.20
2018-11-29T00:02:58.425Z,78.30
2018-11-29T00:05:33.870Z,78.93
2018-11-29T00:08:09.314Z,74.77
2018-11-29T00:10:39.089Z,74.07
2018-11-29T00:13:08.732Z,73.60
2018-11-29T00:15:45.193Z,73.80
2018-11-29T00:18:14.877Z,72.93
2018-11-29T00:20:44.700Z,71.50
2018-11-29T00:23:14.573Z,70.00
2018-11-29T00:25:44.398Z,71.23
2018-11-29T00:28:14.247Z,70.33
2018-11-29T00:30:43.973Z,67.53
2018-11-29T00:33:13.867Z,65.90
2018-11-29T00:35:43.666Z,67.10
2018-11-29T00:38:13.433Z,65.43
2018-11-29T00:40:43.584Z,66.13
2018-11-29T00:43:13.343Z,61.87
2018-11-29T00:45:43.125Z,63.00
2018-11-29T00:48:12.905Z,62.83
2018-11-29T00:50:42.737Z,62.03
2018-11-29T00:53:12.384Z,60.47
2018-11-29T00:55:42.117Z,61.50
2018-11-29T00:58:11.904Z,59.87
2018-11-29T01:00:41.588Z,59.90
2018-11-29T01:03:11.393Z,60.10
2018-11-29T01:05:41.205Z,59.60
2018-11-29T01:08:10.981Z,57.13
2018-11-29T01:10:40.789Z,58.70
2018-11-29T01:13:10.500Z,58.47
2018-11-29T01:15:40.384Z,57.27
2018-11-29T01:18:10.245Z,56.57
2018-11-29T01:20:40.028Z,55.87
2018-11-29T01:23:09.728Z,55.00
2018-11-29T01:25:39.416Z,54.20
2018-11-29T01:28:09.149Z,53.27
2018-11-29T01:30:38.965Z,54.90
2018-11-29T01:33:08.741Z,52.70
2018-11-29T01:36:06.180Z,51.00
2018-11-29T01:38:36.044Z,51.30
2018-11-29T01:41:06.105Z,51.67
2018-11-29T01:43:35.841Z,52.30
2018-11-29T01:46:05.581Z,51.13
2018-11-29T01:48:35.369Z,49.60
2018-11-29T01:51:05.078Z,49.53
2018-11-29T01:53:34.881Z,49.60
2018-11-29T01:56:04.566Z,48.53
2018-11-29T01:58:34.368Z,49.60
2018-11-29T02:01:04.140Z,47.00
2018-11-29T02:03:34.004Z,48.10
2018-11-29T02:06:03.764Z,45.77
2018-11-29T02:08:33.607Z,47.53
2018-11-29T02:11:03.457Z,46.90
2018-11-29T02:13:33.188Z,45.27
2018-11-29T02:16:02.978Z,44.43
2018-11-29T02:18:33.057Z,45.57
2018-11-29T02:21:02.937Z,43.70
2018-11-29T02:23:32.765Z,44.73
2018-11-29T02:26:02.454Z,43.57
2018-11-29T02:28:32.362Z,43.00
2018-11-29T02:31:02.748Z,44.47
2018-11-29T02:33:32.537Z,42.97
2018-11-29T02:36:02.293Z,42.80
2018-11-29T02:38:32.014Z,42.53
2018-11-29T02:41:01.716Z,40.90
2018-11-29T02:43:31.510Z,41.10
2018-11-29T02:46:01.388Z,40.20
2018-11-29T02:48:31.199Z,40.13
2018-11-29T02:51:01.098Z,38.20
2018-11-29T02:53:30.882Z,40.03
2018-11-29T02:56:00.698Z,38.23
2018-11-29T02:58:30.537Z,38.70
2018-11-29T03:01:00.280Z,38.37
2018-11-29T03:03:30.013Z,38.57
2018-11-29T03:05:59.768Z,37.57
2018-11-29T03:08:29.562Z,37.63
2018-11-29T03:10:59.361Z,36.40
2018-11-29T03:13:29.096Z,37.13
2018-11-29T03:15:58.865Z,36.50
2018-11-29T03:18:28.568Z,36.70
2018-11-29T03:20:58.367Z,36.87
2018-11-29T03:23:27.988Z,36.03
2018-11-29T03:25:57.746Z,34.73
2018-11-29T03:28:27.465Z,34.43
2018-11-29T03:30:57.238Z,34.00
2018-11-29T03:33:27.397Z,35.30
2018-11-29T03:35:57.121Z,34.53
2018-11-29T03:38:26.896Z,32.57
2018-11-29T03:40:56.714Z,33.07
2018-11-29T03:43:26.496Z,32.30
2018-11-29T03:45:56.333Z,31.13
2018-11-29T03:48:26.117Z,31.60
2018-11-29T03:50:55.940Z,32.03
2018-11-29T03:53:25.742Z,32.10
2018-11-29T03:55:55.524Z,31.30
2018-11-29T03:58:25.344Z,30.80
2018-11-29T04:00:55.156Z,35.10
2018-11-29T04:03:24.968Z,39.07
2018-11-29T04:05:54.887Z,51.30
2018-11-29T04:08:24.716Z,56.33
2018-11-29T04:10:54.513Z,68.47
2018-11-29T04:13:24.411Z,68.90
2018-11-29T04:15:54.130Z,104.03
2018-11-29T04:18:23.911Z,70.53
2018-11-29T04:20:53.772Z,81.27
2018-11-29T04:23:23.574Z,89.77
2018-11-29T04:25:53.244Z,97.43
2018-11-29T04:28:22.972Z,96.47
2018-11-29T04:30:52.865Z,89.67
2018-11-29T04:33:22.746Z,99.73
2018-11-29T04:35:52.557Z,87.50
2018-11-29T04:38:22.270Z,95.60
2018-11-29T04:40:52.317Z,103.33
2018-11-29T04:43:22.080Z,88.53
2018-11-29T04:46:02.863Z,93.97
2018-11-29T04:48:32.615Z,93.60
2018-11-29T04:51:02.489Z,90.33
2018-11-29T04:53:32.196Z,91.47
2018-11-29T04:56:02.007Z,98.63
2018-11-29T04:58:31.748Z,98.10
2018-11-29T05:01:01.476Z,86.67
2018-11-29T05:03:31.549Z,97.03
2018-11-29T05:06:01.350Z,88.13
2018-11-29T05:08:31.170Z,74.63
2018-11-29T05:11:01.041Z,77.93
2018-11-29T05:13:30.904Z,68.73
2018-11-29T05:16:00.561Z,65.97
2018-11-29T05:18:30.367Z,66.50
2018-11-29T05:21:00.221Z,61.40
2018-11-29T05:23:30.124Z,69.23
2018-11-29T05:25:59.709Z,72.33
2018-11-29T05:28:29.380Z,73.87
2018-11-29T05:30:59.098Z,69.63
2018-11-29T05:33:29.141Z,68.57
2018-11-29T05:35:58.997Z,76.87
2018-11-29T05:38:28.805Z,72.77
2018-11-29T05:40:58.878Z,72.50
2018-11-29T05:43:28.634Z,70.57
2018-11-29T05:45:58.365Z,76.13
2018-11-29T05:48:28.159Z,79.07
2018-11-29T05:50:57.865Z,71.40
2018-11-29T05:53:27.521Z,79.80
2018-11-29T05:55:57.245Z,104.30
2018-11-29T05:58:27.098Z,105.97
2018-11-29T06:00:57.489Z,105.37
2018-11-29T06:03:27.327Z,97.47
2018-11-29T06:05:57.103Z,82.27
2018-11-29T06:08:26.892Z,90.87
2018-11-29T06:10:56.570Z,73.43
2018-11-29T06:13:26.333Z,74.60
2018-11-29T06:15:56.136Z,68.20
2018-11-29T06:18:26.045Z,69.83
2018-11-29T06:20:56.025Z,69.63
2018-11-29T06:23:25.949Z,67.50
2018-11-29T06:25:55.710Z,69.40
2018-11-29T06:28:25.567Z,71.53
2018-11-29T06:30:55.348Z,64.57
2018-11-29T06:33:25.166Z,64.50
2018-11-29T06:35:54.968Z,63.83
2018-11-29T06:38:24.797Z,63.67
2018-11-29T06:40:54.661Z,62.53
2018-11-29T06:43:24.543Z,63.63
2018-11-29T06:45:54.351Z,60.47
2018-11-29T06:48:24.185Z,59.37
2018-11-29T06:50:53.976Z,61.20
2018-11-29T06:53:28.908Z,59.10
2018-11-29T06:55:58.605Z,58.70
2018-11-29T06:58:28.428Z,59.40
2018-11-29T07:00:58.240Z,60.40
2018-11-29T07:03:28.905Z,57.60
2018-11-29T07:05:57.966Z,56.13
2018-11-29T07:08:27.717Z,55.40
2018-11-29T07:10:57.545Z,55.20
2018-11-29T07:13:27.333Z,54.97
2018-11-29T07:15:57.007Z,55.33
2018-11-29T07:18:26.784Z,54.07
2018-11-29T07:21:07.489Z,52.93
2018-11-29T07:23:37.269Z,51.17
2018-11-29T07:26:07.526Z,53.10
2018-11-29T07:28:37.341Z,50.60
2018-11-29T07:31:07.351Z,51.87
2018-11-29T07:33:37.032Z,52.70
2018-11-29T07:36:07.244Z,50.47
2018-11-29T07:38:37.036Z,49.57
2018-11-29T07:41:06.970Z,49.93
2018-11-29T07:43:36.754Z,49.60
2018-11-29T07:46:06.740Z,49.77
2018-11-29T07:48:36.508Z,47.87
2018-11-29T07:51:06.569Z,49.80
2018-11-29T07:53:36.385Z,49.60
2018-11-29T07:56:06.168Z,48.17
2018-11-29T07:58:35.904Z,46.77
2018-11-29T08:01:07.047Z,47.10
2018-11-29T08:03:36.957Z,46.10
2018-11-29T08:06:06.673Z,46.70
2018-11-29T08:08:36.741Z,44.37
2018-11-29T08:11:06.629Z,44.83
2018-11-29T08:13:36.368Z,42.47
2018-11-29T08:16:06.465Z,44.67
2018-11-29T08:18:36.154Z,43.83
2018-11-29T08:21:06.018Z,44.20
2018-11-29T08:23:35.797Z,43.53
2018-11-29T08:26:05.575Z,41.63
2018-11-29T08:28:35.361Z,43.07
2018-11-29T08:31:05.380Z,41.57
2018-11-29T08:33:35.148Z,41.93
2018-11-29T08:36:04.848Z,41.50
2018-11-29T08:38:34.564Z,42.50
2018-11-29T08:41:04.296Z,39.90
2018-11-29T08:43:34.689Z,42.43
2018-11-29T08:46:05.216Z,39.57
2018-11-29T08:48:35.006Z,41.27
2018-11-29T08:51:04.649Z,40.63
2018-11-29T08:53:34.729Z,39.50
2018-11-29T08:56:04.652Z,38.73
2018-11-29T08:58:34.413Z,41.60
2018-11-29T09:01:04.173Z,37.63
2018-11-29T09:03:34.085Z,40.87
2018-11-29T09:06:03.898Z,39.20
2018-11-29T09:08:33.706Z,36.53
2018-11-29T09:11:03.521Z,34.53
2018-11-29T09:13:33.330Z,37.50
2018-11-29T09:16:03.110Z,36.43
2018-11-29T09:18:32.963Z,36.07
2018-11-29T09:21:02.635Z,34.87
2018-11-29T09:23:32.464Z,34.53
2018-11-29T09:26:02.188Z,36.03
2018-11-29T09:28:31.833Z,34.43
2018-11-29T09:31:01.674Z,33.20
2018-11-29T09:33:31.461Z,32.83
2018-11-29T09:36:01.333Z,35.00
2018-11-29T09:38:31.115Z,32.80
2018-11-29T09:41:00.972Z,33.77
2018-11-29T09:43:30.636Z,30.83
2018-11-29T09:46:00.477Z,31.93
2018-11-29T09:48:30.256Z,32.30
2018-11-29T09:51:00.058Z,32.20
2018-11-29T09:53:29.916Z,31.80
2018-11-29T09:55:59.794Z,31.67
2018-11-29T09:58:29.480Z,30.87
2018-11-29T10:00:59.301Z,32.30
2018-11-29T10:03:29.413Z,31.13
2018-11-29T10:05:59.241Z,29.63
2018-11-29T10:08:29.040Z,29.10
2018-11-29T10:10:58.910Z,30.27
2018-11-29T10:13:28.545Z,28.40
2018-11-29T10:15:58.245Z,29.70
2018-11-29T10:18:28.040Z,29.67
2018-11-29T10:20:57.784Z,29.60
2018-11-29T10:23:27.521Z,28.97
2018-11-29T10:25:57.305Z,27.67
2018-11-29T10:28:27.081Z,28.20
2018-11-29T10:30:59.878Z,28.50
2018-11-29T10:33:29.637Z,28.07
2018-11-29T10:35:59.585Z,28.37
2018-11-29T10:38:29.169Z,26.10
2018-11-29T10:40:58.977Z,28.00
2018-11-29T10:43:28.690Z,25.17
2018-11-29T10:45:58.473Z,27.10
2018-11-29T10:48:28.146Z,25.23
2018-11-29T10:50:57.892Z,27.00
2018-11-29T10:53:27.770Z,25.00
2018-11-29T10:55:57.582Z,25.40
2018-11-29T10:58:27.409Z,26.70
2018-11-29T11:01:02.029Z,25.03
2018-11-29T11:03:31.840Z,26.20
2018-11-29T11:06:01.573Z,23.83
2018-11-29T11:08:31.306Z,23.83
2018-11-29T11:11:07.517Z,23.67
2018-11-29T11:13:38.450Z,24.23
2018-11-29T11:16:08.278Z,23.67
2018-11-29T11:18:38.177Z,23.60
2018-11-29T11:21:07.915Z,22.70
2018-11-29T11:23:37.647Z,24.40
2018-11-29T11:26:07.481Z,23.53
2018-11-29T11:28:37.322Z,22.00
2018-11-29T11:31:06.996Z,23.73
2018-11-29T11:33:36.808Z,22.97
2018-11-29T11:36:06.626Z,21.77
2018-11-29T11:38:36.405Z,23.87
2018-11-29T11:41:06.313Z,23.07
2018-11-29T11:43:36.197Z,22.17
2018-11-29T11:46:06.010Z,21.97
2018-11-29T11:48:35.946Z,20.83
2018-11-29T11:51:05.804Z,20.50
2018-11-29T11:53:35.642Z,20.90
2018-11-29T11:56:05.592Z,20.37
2018-11-29T11:58:35.332Z,21.37
2018-11-29T12:01:05.117Z,20.80
2018-11-29T12:03:34.758Z,20.50
2018-11-29T12:06:04.564Z,21.53
2018-11-29T12:08:34.352Z,20.80
2018-11-29T12:11:04.125Z,19.63
2018-11-29T12:13:33.909Z,20.43
2018-11-29T12:16:03.705Z,20.10
2018-11-29T12:18:33.508Z,20.17
2018-11-29T12:21:03.329Z,19.53
2018-11-29T12:23:33.186Z,18.90
2018-11-29T12:26:04.377Z,19.63
2018-11-29T12:28:34.177Z,19.17
2018-11-29T12:31:03.889Z,19.30
2018-11-29T12:33:33.601Z,19.03
2018-11-29T12:36:03.409Z,18.37
2018-11-29T12:38:33.141Z,18.80
2018-11-29T12:41:02.940Z,17.80
2018-11-29T12:43:32.916Z,17.93
2018-11-29T12:46:02.688Z,17.57
2018-11-29T12:48:32.594Z,18.27
2018-11-29T12:51:02.385Z,16.57
2018-11-29T12:53:32.269Z,16.93
2018-11-29T12:56:02.181Z,16.13
2018-11-29T12:58:32.034Z,16.17
2018-11-29T13:01:01.908Z,16.77
2018-11-29T13:03:31.725Z,16.73
2018-11-29T13:06:01.536Z,16.83
2018-11-29T13:08:31.345Z,16.23
2018-11-29T13:11:01.175Z,15.87
2018-11-29T13:13:30.933Z,16.40
2018-11-29T13:16:00.710Z,15.23
2018-11-29T13:18:30.427Z,16.13
2018-11-29T13:21:03.133Z,16.57
2018-11-29T13:23:32.916Z,16.60
2018-11-29T13:26:02.626Z,14.97
2018-11-29T13:28:33.167Z,16.47
2018-11-29T13:31:02.962Z,15.07
2018-11-29T13:33:33.022Z,14.73
2018-11-29T13:36:02.509Z,16.13
2018-11-29T13:38:32.265Z,14.63
2018-11-29T13:41:02.077Z,14.77
2018-11-29T13:43:31.895Z,15.53
2018-11-29T13:46:01.704Z,14.23
2018-11-29T13:48:31.483Z,14.90
2018-11-29T13:51:01.328Z,14.90
2018-11-29T13:53:31.092Z,13.67
2018-11-29T13:56:00.887Z,15.50
2018-11-29T13:58:30.716Z,14.20
2018-11-29T14:01:00.652Z,14.43
2018-11-29T14:03:30.389Z,14.03
2018-11-29T14:06:01.004Z,13.33
2018-11-29T14:08:31.209Z,14.20
2018-11-29T14:11:01.021Z,13.90
2018-11-29T14:13:30.744Z,13.33
2018-11-29T14:16:00.505Z,14.20
2018-11-29T14:18:33.652Z,12.90
2018-11-29T14:21:03.446Z,13.80
2018-11-29T14:23:33.275Z,13.40
2018-11-29T14:26:03.133Z,12.90
2018-11-29T14:28:32.760Z,12.07
2018-11-29T14:31:02.572Z,14.03
2018-11-29T14:33:32.492Z,13.60
2018-11-29T14:36:02.656Z,13.93
2018-11-29T14:38:32.457Z,13.57
2018-11-29T14:41:02.429Z,13.37
2018-11-29T14:43:32.184Z,13.30
2018-11-29T14:46:02.027Z,13.13
2018-11-29T14:48:31.773Z,12.67
2018-11-29T14:51:02.613Z,13.00
2018-11-29T14:53:31.503Z,13.17
2018-11-29T14:56:01.223Z,13.33
2018-11-29T14:58:30.998Z,12.80
2018-11-29T15:01:00.851Z,12.10
2018-11-29T15:03:30.789Z,12.60
2018-11-29T15:06:00.585Z,12.27
2018-11-29T15:08:30.265Z,12.27
2018-11-29T15:11:00.000Z,12.37
2018-11-29T15:13:30.721Z,12.47
2018-11-29T15:16:00.653Z,12.50
2018-11-29T15:18:30.493Z,12.47
2018-11-29T15:21:00.304Z,11.50
2018-11-29T15:23:30.508Z,11.40
2018-11-29T15:26:01.260Z,12.20
2018-11-29T15:28:31.279Z,11.20
2018-11-29T15:31:01.199Z,11.77
2018-11-29T15:33:31.358Z,11.67
2018-11-29T15:36:01.229Z,11.27
2018-11-29T15:38:31.077Z,10.93
2018-11-29T15:41:01.500Z,10.50
2018-11-29T15:43:31.540Z,10.87
2018-11-29T15:46:01.393Z,10.43
2018-11-29T15:48:31.141Z,10.77
2018-11-29T15:51:00.850Z,10.20
2018-11-29T15:53:30.569Z,10.20
2018-11-29T15:56:05.845Z,10.77
2018-11-29T15:58:36.410Z,9.90
2018-11-29T16:01:06.284Z,10.00
2018-11-29T16:03:37.513Z,9.30
2018-11-29T16:06:07.972Z,9.27
2018-11-29T16:08:38.173Z,10.03
2018-11-29T16:11:07.963Z,9.53
2018-11-29T16:13:37.680Z,9.77
2018-11-29T16:16:07.481Z,10.60
2018-11-29T16:18:37.262Z,9.50
2018-11-29T16:21:07.123Z,10.40
2018-11-29T16:23:36.840Z,9.67
2018-11-29T16:26:06.596Z,9.83
2018-11-29T16:28:36.410Z,10.27
2018-11-29T16:31:08.362Z,9.93
2018-11-29T16:33:39.460Z,9.60
2018-11-29T16:36:09.633Z,9.13
2018-11-29T16:38:39.529Z,9.40
2018-11-29T16:41:09.236Z,9.40
2018-11-29T16:43:39.032Z,9.00
2018-11-29T16:46:08.757Z,9.70
2018-11-29T16:48:38.553Z,9.37
2018-11-29T16:51:08.314Z,9.23
2018-11-29T16:53:38.067Z,9.13
2018-11-29T16:56:07.853Z,9.10
2018-11-29T16:58:37.553Z,10.00
2018-11-29T17:01:09.044Z,9.20
2018-11-29T17:03:37.442Z,9.77
2018-11-29T17:06:07.244Z,9.90
2018-11-29T17:08:37.081Z,12.37
2018-11-29T17:11:06.832Z,12.07
2018-11-29T17:13:37.428Z,11.23
2018-11-29T17:16:08.958Z,12.10
2018-11-29T17:18:38.753Z,29.07
2018-11-29T17:21:08.539Z,36.60
2018-11-29T17:23:38.375Z,37.87
2018-11-29T17:26:08.137Z,27.60
2018-11-29T17:28:37.953Z,52.97
2018-11-29T17:31:07.822Z,41.40
2018-11-29T17:33:37.590Z,49.20
2018-11-29T17:36:07.408Z,37.80
2018-11-29T17:38:37.115Z,62.40
2018-11-29T17:41:08.600Z,73.17
2018-11-29T17:43:38.307Z,132.93
2018-11-29T17:46:09.258Z,99.20
2018-11-29T17:48:39.026Z,84.30
2018-11-29T17:51:09.042Z,64.83
2018-11-29T17:53:38.821Z,83.77
2018-11-29T17:56:08.584Z,73.27
2018-11-29T17:58:38.405Z,67.07
2018-11-29T18:01:08.224Z,61.53
2018-11-29T18:03:38.017Z,64.47
2018-11-29T18:06:07.772Z,60.63
2018-11-29T18:08:37.764Z,57.53
2018-11-29T18:11:08.389Z,58.43
2018-11-29T18:13:39.110Z,61.73
2018-11-29T18:16:08.805Z,93.90
2018-11-29T18:18:38.620Z,81.80
2018-11-29T18:21:08.546Z,74.33
2018-11-29T18:23:38.437Z,80.73
2018-11-29T18:26:08.132Z,72.57
2018-11-29T18:28:37.916Z,77.67
2018-11-29T18:31:07.748Z,77.13
2018-11-29T18:33:37.717Z,69.10
2018-11-29T18:36:07.746Z,65.10
2018-11-29T18:38:37.542Z,181.90
2018-11-29T18:41:07.395Z,85.03
2018-11-29T18:43:37.305Z,103.93
2018-11-29T18:46:06.949Z,146.83
2018-11-29T18:48:36.769Z,129.93
2018-11-29T18:51:06.698Z,169.33
2018-11-29T18:53:36.533Z,151.00
2018-11-29T18:56:06.349Z,118.97
2018-11-29T18:58:36.179Z,105.67
2018-11-29T19:01:06.182Z,92.23
2018-11-29T19:03:35.993Z,89.43
2018-11-29T19:06:05.851Z,86.27
2018-11-29T19:08:35.749Z,84.73
2018-11-29T19:11:05.653Z,90.67
2018-11-29T19:13:35.548Z,91.57
2018-11-29T19:16:05.492Z,87.20
2018-11-29T19:18:35.266Z,88.20
2018-11-29T19:21:05.259Z,83.37
2018-11-29T19:23:35.288Z,89.07
2018-11-29T19:26:04.689Z,88.97
2018-11-29T19:28:34.702Z,87.70
2018-11-29T19:31:04.486Z,85.37
2018-11-29T19:33:34.159Z,86.60
2018-11-29T19:36:03.936Z,84.53
2018-11-29T19:38:33.790Z,90.67
2018-11-29T19:41:03.525Z,112.53
2018-11-29T19:43:33.325Z,104.97
2018-11-29T19:46:03.193Z,106.50
2018-11-29T19:48:32.894Z,110.70
2018-11-29T19:51:02.700Z,107.00
2018-11-29T19:53:32.555Z,126.57
2018-11-29T19:56:03.314Z,109.73
2018-11-29T19:58:33.138Z,133.40
2018-11-29T20:01:03.061Z,134.30
2018-11-29T20:03:34.833Z,119.23
2018-11-29T20:06:04.809Z,130.07
2018-11-29T20:08:34.758Z,127.83
2018-11-29T20:11:04.573Z,117.90
2018-11-29T20:13:35.233Z,124.67
2018-11-29T20:16:05.085Z,121.83
2018-11-29T20:18:34.867Z,126.70
2018-11-29T20:21:04.838Z,122.20
2018-11-29T20:23:34.609Z,114.23
2018-11-29T20:26:04.433Z,112.63
2018-11-29T20:28:34.129Z,119.27
2018-11-29T20:31:03.954Z,117.17
2018-11-29T20:33:34.121Z,112.43
2018-11-29T20:36:04.012Z,103.70
2018-11-29T20:38:33.817Z,104.10
2018-11-29T20:41:04.065Z,98.43
2018-11-29T20:43:33.830Z,98.33
2018-11-29T20:46:04.038Z,94.13
2018-11-29T20:48:33.858Z,90.10
2018-11-29T20:51:03.713Z,94.43
2018-11-29T20:53:36.085Z,89.00
2018-11-29T20:56:07.549Z,90.07
2018-11-29T20:58:37.637Z,89.20
2018-11-29T21:01:08.441Z,92.30
2018-11-29T21:03:38.315Z,102.10
2018-11-29T21:06:10.030Z,103.70
2018-11-29T21:08:40.329Z,116.20
2018-11-29T21:11:10.165Z,111.57
2018-11-29T21:13:39.953Z,104.27
2018-11-29T21:16:09.597Z,111.17
2018-11-29T21:18:40.387Z,109.77
2018-11-29T21:21:10.382Z,111.07
2018-11-29T21:23:40.269Z,107.57
2018-11-29T21:26:09.873Z,134.17
2018-11-29T21:28:39.754Z,160.20
2018-11-29T21:31:09.525Z,213.30
2018-11-29T21:33:39.377Z,190.00
2018-11-29T21:36:09.180Z,177.23
2018-11-29T21:38:38.954Z,159.67
2018-11-29T21:41:09.053Z,158.53
2018-11-29T21:43:38.997Z,161.97
2018-11-29T21:46:09.900Z,151.73
2018-11-29T21:48:39.624Z,148.73
2018-11-29T21:51:09.665Z,146.27
2018-11-29T21:53:39.355Z,147.17
2018-11-29T21:56:09.228Z,141.23
2018-11-29T21:58:38.954Z,141.53
2018-11-29T22:01:09.333Z,141.60
2018-11-29T22:03:39.221Z,135.43
2018-11-29T22:06:09.428Z,135.53
2018-11-29T22:08:39.321Z,137.20
2018-11-29T22:11:09.220Z,135.80
2018-11-29T22:13:39.010Z,131.10
2018-11-29T22:16:08.948Z,129.90
2018-11-29T22:18:38.737Z,132.10
2018-11-29T22:21:08.548Z,128.93
2018-11-29T22:23:39.245Z,135.00
2018-11-29T22:26:13.129Z,137.03
2018-11-29T22:28:43.172Z,139.20
2018-11-29T22:31:13.205Z,144.10
2018-11-29T22:33:42.865Z,152.77
2018-11-29T22:36:12.684Z,138.40
2018-11-29T22:38:44.460Z,143.63
2018-11-29T22:41:12.437Z,162.00
2018-11-29T22:43:42.130Z,156.53
2018-11-29T22:46:11.933Z,166.33
2018-11-29T22:48:41.798Z,156.80
2018-11-29T22:51:11.576Z,159.33
2018-11-29T22:53:41.413Z,168.43
2018-11-29T22:56:10.998Z,161.03
2018-11-29T22:58:40.793Z,167.57
2018-11-29T23:01:41.292Z,163.83
2018-11-29T23:04:11.080Z,159.47
2018-11-29T23:06:40.925Z,157.37
2018-11-29T23:09:10.909Z,153.83
2018-11-29T23:11:40.721Z,155.43
2018-11-29T23:14:10.521Z,150.00
2018-11-29T23:16:40.317Z,151.30
2018-11-29T23:19:10.021Z,149.60
2018-11-29T23:21:39.803Z,148.60
2018-11-29T23:24:09.542Z,146.77
2018-11-29T23:26:39.321Z,145.53
2018-11-29T23:29:08.930Z,144.93
2018-11-29T23:31:38.717Z,142.13
2018-11-29T23:34:08.458Z,136.13
2018-11-29T23:36:38.321Z,141.00
2018-11-29T23:39:08.789Z,137.60
2018-11-29T23:41:38.634Z,136.93
2018-11-29T23:44:08.425Z,133.20
2018-11-29T23:46:38.278Z,131.97
2018-11-29T23:49:08.127Z,130.53
2018-11-29T23:51:37.967Z,129.50
2018-11-29T23:54:07.825Z,130.27
2018-11-29T23:56:37.632Z,130.60
2018-11-29T23:59:07.449Z,127.67
